| time (UTC) | temp F | wind direction | speed MPH | gust MPH | rain 1hr in | rain 24hr in | rain mn in | humidity % | barometer mb |
| 20260831233137 | 72 | 226 | 0.0 | 0.0 | 0.00 | 0.04 | 0.04 | 99 | 984.3 |
| 20260831232632 | 72 | 226 | 0.0 | 0.0 | 0.00 | 0.04 | 0.04 | 99 | 984.2 |
| 20260831232128 | 72 | 226 | 0.0 | 1.0 | 0.00 | 0.04 | 0.04 | 99 | 984.5 |
| 20260831231619 | 72 | 226 | 0.0 | 0.0 | 0.00 | 0.04 | 0.04 | 99 | 984.5 |
| 20260831231114 | 73 | 225 | 0.0 | 1.0 | 0.00 | 0.04 | 0.04 | 99 | 984.4 |
| 20260831230609 | 73 | 237 | 0.0 | 1.0 | 0.00 | 0.04 | 0.04 | 99 | 984.7 |
| 20260831230104 | 73 | 302 | 1.0 | 2.0 | 0.00 | 0.04 | 0.04 | 99 | 984.8 |
| 20260831225559 | 73 | 89 | 0.0 | 3.0 | 0.00 | 0.04 | 0.04 | 98 | 984.8 |
| 20260831225058 | 73 | 229 | 1.0 | 2.0 | 0.00 | 0.04 | 0.04 | 99 | 985.0 |
| 20260831224553 | 73 | 229 | 0.0 | 0.0 | 0.00 | 0.04 | 0.04 | 99 | 984.9 |
| 20260831224049 | 72 | 229 | 0.0 | 0.0 | 0.00 | 0.04 | 0.04 | 99 | 984.8 |
| 20260831223544 | 72 | 229 | 0.0 | 0.0 | 0.00 | 0.04 | 0.04 | 99 | 984.8 |
| 20260831223040 | 72 | 229 | 0.0 | 0.0 | 0.00 | 0.04 | 0.04 | 99 | 984.5 |
| 20260831222536 | 72 | 229 | 0.0 | 0.0 | 0.00 | 0.04 | 0.04 | 99 | 984.5 |
| 20260831222036 | 72 | 229 | 0.0 | 0.0 | 0.00 | 0.04 | 0.04 | 99 | 984.6 |
| 20260831221532 | 71 | 229 | 0.0 | 0.0 | 0.00 | 0.04 | 0.04 | 99 | 984.7 |
| 20260831221033 | 72 | 229 | 0.0 | 0.0 | 0.00 | 0.04 | 0.04 | 99 | 984.9 |
| 20260831220528 | 72 | 229 | 0.0 | 0.0 | 0.00 | 0.04 | 0.04 | 99 | 985.0 |
| 20260831220023 | 72 | 229 | 0.0 | 0.0 | 0.00 | 0.04 | 0.04 | 99 | 984.7 |
| 20260831215519 | 72 | 229 | 0.0 | 0.0 | 0.00 | 0.04 | 0.04 | 99 | 984.7 |
| 20260831215014 | 72 | 229 | 0.0 | 1.0 | 0.00 | 0.04 | 0.04 | 99 | 984.7 |
| 20260831214512 | 72 | 229 | 0.0 | 0.0 | 0.07 | 0.04 | 0.04 | 99 | 984.9 |
| 20260831214007 | 72 | 229 | 0.0 | 0.0 | 0.12 | 0.04 | 0.04 | 99 | 985.1 |
| 20260831213504 | 73 | 229 | 0.0 | 0.0 | 0.05 | 0.03 | 0.03 | 98 | 985.1 |
| 20260831213004 | 73 | 229 | 0.0 | 0.0 | 0.07 | 0.02 | 0.02 | 97 | 985.1 |
| 20260831212500 | 73 | 229 | 0.0 | 0.0 | 0.12 | 0.02 | 0.02 | 96 | 985.2 |
| 20260831211954 | 74 | 229 | 1.0 | 2.0 | 0.05 | 0.01 | 0.01 | 95 | 985.3 |
| 20260831211449 | 75 | 229 | 1.0 | 1.0 | 0.00 | 0.00 | 0.00 | 91 | 985.5 |
| 20260831210948 | 77 | 229 | 0.0 | 1.0 | 0.00 | 0.00 | 0.00 | 84 | 985.4 |
| 20260831210444 | 79 | 46 | 1.0 | 10.0 | 0.00 | 0.00 | 0.00 | 80 | 985.2 |
| 20260831205940 | 80 | 246 | 9.0 | 13.0 | 0.00 | 0.00 | 0.00 | 79 | 985.0 |
| 20260831205435 | 80 | 116 | 0.0 | 1.0 | 0.00 | 0.00 | 0.00 | 89 | 984.4 |
| 20260831204930 | 82 | 116 | 1.0 | 1.0 | 0.00 | 0.00 | 0.00 | 87 | 984.6 |
| 20260831204430 | 83 | 116 | 0.0 | 1.0 | 0.00 | 0.00 | 0.00 | 79 | 984.3 |
| 20260831203929 | 83 | 116 | 0.0 | 1.0 | 0.00 | 0.00 | 0.00 | 77 | 984.4 |
| 20260831203424 | 85 | 116 | 1.0 | 1.0 | 0.00 | 0.00 | 0.00 | 76 | 984.8 |
| 20260831202922 | 86 | 115 | 0.0 | 1.0 | 0.00 | 0.00 | 0.00 | 73 | 984.7 |
| 20260831202418 | 88 | 110 | 1.0 | 4.0 | 0.00 | 0.00 | 0.00 | 73 | 984.5 |
| 20260831201917 | 87 | 247 | 1.0 | 3.0 | 0.00 | 0.00 | 0.00 | 73 | 984.5 |
| 20260831201416 | 87 | 239 | 2.0 | 3.0 | 0.00 | 0.00 | 0.00 | 69 | 984.6 |
| 20260831200912 | 87 | 108 | 3.0 | 4.0 | 0.00 | 0.00 | 0.00 | 72 | 984.6 |
| 20260831200407 | 87 | 112 | 4.0 | 4.0 | 0.00 | 0.00 | 0.00 | 70 | 984.6 |
| 20260831195902 | 87 | 126 | 2.0 | 3.0 | 0.00 | 0.00 | 0.00 | 73 | 984.8 |
| 20260831195357 | 87 | 131 | 3.0 | 3.0 | 0.00 | 0.00 | 0.00 | 71 | 984.8 |
| 20260831194853 | 86 | 138 | 0.0 | 2.0 | 0.00 | 0.00 | 0.00 | 72 | 985.0 |
| 20260831194348 | 86 | 224 | 0.0 | 2.0 | 0.00 | 0.00 | 0.00 | 71 | 984.9 |
| 20260831193847 | 86 | 110 | 2.0 | 3.0 | 0.00 | 0.00 | 0.00 | 72 | 985.1 |
| 20260831193343 | 86 | 145 | 1.0 | 2.0 | 0.00 | 0.00 | 0.00 | 72 | 985.1 |
| 20260831192838 | 87 | 49 | 0.0 | 1.0 | 0.00 | 0.00 | 0.00 | 74 | 985.2 |
| 20260831192337 | 85 | 141 | 1.0 | 2.0 | 0.00 | 0.00 | 0.00 | 74 | 985.1 |
| 20260831191833 | 85 | 179 | 0.0 | 3.0 | 0.00 | 0.00 | 0.00 | 73 | 985.2 |
| 20260831191329 | 85 | 236 | 1.0 | 3.0 | 0.00 | 0.00 | 0.00 | 73 | 985.4 |
| 20260831190825 | 85 | 131 | 1.0 | 2.0 | 0.00 | 0.00 | 0.00 | 73 | 985.4 |
| 20260831190319 | 85 | 255 | 1.0 | 3.0 | 0.00 | 0.00 | 0.00 | 73 | 985.6 |
| 20260831185819 | 85 | 120 | 3.0 | 4.0 | 0.00 | 0.00 | 0.00 | 73 | 985.4 |
| 20260831185314 | 85 | 101 | 3.0 | 3.0 | 0.00 | 0.00 | 0.00 | 74 | 985.6 |
| 20260831184813 | 85 | 250 | 2.0 | 3.0 | 0.00 | 0.00 | 0.00 | 74 | 985.6 |
| 20260831184309 | 85 | 115 | 1.0 | 3.0 | 0.00 | 0.00 | 0.00 | 73 | 985.6 |
| 20260831183804 | 85 | 101 | 3.0 | 6.0 | 0.00 | 0.00 | 0.00 | 72 | 985.7 |
| 20260831183303 | 85 | 93 | 3.0 | 4.0 | 0.00 | 0.00 | 0.00 | 73 | 985.7 |
| 20260831182803 | 85 | 109 | 2.0 | 3.0 | 0.00 | 0.00 | 0.00 | 75 | 985.8 |
| 20260831182258 | 85 | 122 | 1.0 | 3.0 | 0.00 | 0.00 | 0.00 | 77 | 985.8 |
| 20260831181753 | 84 | 127 | 1.0 | 2.0 | 0.00 | 0.00 | 0.00 | 77 | 985.8 |
| 20260831181249 | 83 | 224 | 4.0 | 4.0 | 0.00 | 0.00 | 0.00 | 76 | 985.9 |
| 20260831180748 | 83 | 124 | 3.0 | 4.0 | 0.00 | 0.00 | 0.00 | 77 | 986.1 |
| 20260831180243 | 83 | 117 | 3.0 | 4.0 | 0.00 | 0.00 | 0.00 | 79 | 986.0 |
| 20260831175742 | 82 | 127 | 1.0 | 1.0 | 0.00 | 0.00 | 0.00 | 81 | 986.0 |
| 20260831175239 | 82 | 127 | 2.0 | 2.0 | 0.00 | 0.00 | 0.00 | 81 | 986.2 |
| 20260831174734 | 81 | 128 | 0.0 | 3.0 | 0.00 | 0.00 | 0.00 | 83 | 986.2 |
| 20260831174230 | 82 | 193 | 1.0 | 2.0 | 0.00 | 0.00 | 0.00 | 81 | 986.2 |
| 20260831173729 | 82 | 196 | 0.0 | 2.0 | 0.00 | 0.00 | 0.00 | 81 | 986.2 |
| 20260831173229 | 81 | 142 | 1.0 | 3.0 | 0.00 | 0.00 | 0.00 | 82 | 986.2 |
| 20260831172724 | 81 | 119 | 1.0 | 2.0 | 0.00 | 0.00 | 0.00 | 84 | 986.2 |
| 20260831172219 | 82 | 135 | 0.0 | 1.0 | 0.00 | 0.00 | 0.00 | 83 | 986.3 |
| 20260831171714 | 82 | 133 | 0.0 | 1.0 | 0.00 | 0.00 | 0.00 | 84 | 986.1 |
| 20260831171212 | 82 | 195 | 1.0 | 3.0 | 0.00 | 0.00 | 0.00 | 83 | 986.1 |
| 20260831170708 | 82 | 147 | 0.0 | 2.0 | 0.00 | 0.00 | 0.00 | 82 | 986.2 |
| 20260831170204 | 82 | 95 | 0.0 | 1.0 | 0.00 | 0.00 | 0.00 | 84 | 986.1 |
| 20260831165700 | 81 | 95 | 0.0 | 2.0 | 0.00 | 0.00 | 0.00 | 83 | 986.2 |
| 20260831165156 | 81 | 95 | 1.0 | 2.0 | 0.00 | 0.00 | 0.00 | 85 | 986.2 |
| 20260831164652 | 80 | 95 | 2.0 | 2.0 | 0.00 | 0.00 | 0.00 | 85 | 986.2 |
| 20260831164148 | 81 | 139 | 1.0 | 2.0 | 0.00 | 0.00 | 0.00 | 84 | 986.4 |
| 20260831163642 | 81 | 107 | 1.0 | 1.0 | 0.00 | 0.00 | 0.00 | 84 | 986.2 |
| 20260831163138 | 80 | 106 | 1.0 | 1.0 | 0.00 | 0.00 | 0.00 | 85 | 986.3 |
| 20260831162637 | 80 | 106 | 0.0 | 1.0 | 0.00 | 0.00 | 0.00 | 87 | 986.2 |
| 20260831162135 | 80 | 106 | 0.0 | 0.0 | 0.00 | 0.00 | 0.00 | 88 | 986.3 |
| 20260831161631 | 80 | 106 | 0.0 | 1.0 | 0.00 | 0.00 | 0.00 | 89 | 986.2 |
| 20260831161128 | 79 | 106 | 0.0 | 0.0 | 0.00 | 0.00 | 0.00 | 87 | 986.3 |
| 20260831160627 | 79 | 106 | 0.0 | 1.0 | 0.00 | 0.00 | 0.00 | 91 | 986.3 |
| 20260831160122 | 78 | 106 | 0.0 | 1.0 | 0.00 | 0.00 | 0.00 | 92 | 986.3 |
| 20260831155616 | 78 | 106 | 0.0 | 1.0 | 0.00 | 0.00 | 0.00 | 90 | 986.3 |
| 20260831155112 | 78 | 106 | 1.0 | 1.0 | 0.00 | 0.00 | 0.00 | 89 | 986.4 |
| 20260831154608 | 78 | 106 | 0.0 | 1.0 | 0.00 | 0.00 | 0.00 | 90 | 986.3 |
| 20260831154107 | 78 | 106 | 0.0 | 1.0 | 0.00 | 0.00 | 0.00 | 88 | 986.2 |
| 20260831153607 | 78 | 106 | 2.0 | 3.0 | 0.00 | 0.00 | 0.00 | 86 | 986.3 |
| 20260831153104 | 78 | 98 | 0.0 | 3.0 | 0.00 | 0.00 | 0.00 | 87 | 986.4 |
| 20260831152559 | 78 | 126 | 1.0 | 2.0 | 0.00 | 0.00 | 0.00 | 86 | 986.5 |
| 20260831152055 | 78 | 126 | 0.0 | 2.0 | 0.00 | 0.00 | 0.00 | 86 | 986.4 |
| 20260831151554 | 78 | 108 | 2.0 | 2.0 | 0.00 | 0.00 | 0.00 | 87 | 986.4 |
| 20260831151049 | 78 | 112 | 0.0 | 2.0 | 0.00 | 0.00 | 0.00 | 88 | 986.2 |
| 20260831150543 | 78 | 99 | 2.0 | 3.0 | 0.00 | 0.00 | 0.00 | 89 | 986.4 |
| 20260831150040 | 78 | 100 | 2.0 | 2.0 | 0.00 | 0.00 | 0.00 | 87 | 986.4 |
| 20260831145534 | 78 | 97 | 1.0 | 3.0 | 0.00 | 0.00 | 0.00 | 87 | 986.4 |
| 20260831145030 | 78 | 97 | 2.0 | 3.0 | 0.00 | 0.00 | 0.00 | 87 | 986.5 |
| 20260831144526 | 78 | 92 | 3.0 | 3.0 | 0.00 | 0.00 | 0.00 | 86 | 986.5 |
| 20260831144021 | 78 | 155 | 2.0 | 2.0 | 0.00 | 0.00 | 0.00 | 87 | 986.4 |
| 20260831143515 | 78 | 65 | 1.0 | 1.0 | 0.00 | 0.00 | 0.00 | 87 | 986.4 |
| 20260831143011 | 78 | 64 | 1.0 | 1.0 | 0.00 | 0.00 | 0.00 | 87 | 986.4 |
| 20260831142508 | 78 | 64 | 1.0 | 1.0 | 0.00 | 0.00 | 0.00 | 88 | 986.2 |
| 20260831142003 | 78 | 64 | 2.0 | 2.0 | 0.00 | 0.00 | 0.00 | 88 | 986.2 |
| 20260831141501 | 77 | 159 | 0.0 | 1.0 | 0.00 | 0.00 | 0.00 | 89 | 986.4 |
| 20260831140956 | 76 | 213 | 1.0 | 2.0 | 0.00 | 0.00 | 0.00 | 91 | 986.1 |
| 20260831140456 | 75 | 216 | 0.0 | 1.0 | 0.00 | 0.00 | 0.00 | 93 | 986.1 |
| 20260831135955 | 75 | 216 | 1.0 | 2.0 | 0.00 | 0.00 | 0.00 | 93 | 986.1 |
| 20260831135454 | 74 | 247 | 0.0 | 1.0 | 0.00 | 0.00 | 0.00 | 93 | 986.2 |
| 20260831134949 | 74 | 247 | 0.0 | 0.0 | 0.00 | 0.00 | 0.00 | 94 | 986.3 |
| 20260831134446 | 73 | 247 | 0.0 | 0.0 | 0.00 | 0.00 | 0.00 | 95 | 986.2 |
| 20260831133945 | 73 | 247 | 0.0 | 0.0 | 0.00 | 0.00 | 0.00 | 96 | 986.3 |
| 20260831133440 | 73 | 247 | 0.0 | 0.0 | 0.00 | 0.00 | 0.00 | 95 | 986.2 |
| 20260831132935 | 73 | 247 | 0.0 | 0.0 | 0.00 | 0.00 | 0.00 | 95 | 986.3 |
| 20260831132430 | 73 | 247 | 0.0 | 1.0 | 0.00 | 0.00 | 0.00 | 94 | 986.4 |
| 20260831131930 | 71 | 247 | 0.0 | 0.0 | 0.00 | 0.00 | 0.00 | 96 | 986.4 |
| 20260831131425 | 70 | 247 | 0.0 | 0.0 | 0.00 | 0.00 | 0.00 | 99 | 986.3 |
| 20260831130921 | 69 | 247 | 0.0 | 0.0 | 0.00 | 0.00 | 0.00 | 99 | 986.5 |
| 20260831130416 | 68 | 247 | 0.0 | 0.0 | 0.00 | 0.00 | 0.00 | 99 | 986.3 |
| 20260831125915 | 67 | 247 | 0.0 | 0.0 | 0.00 | 0.00 | 0.00 | 99 | 986.2 |
| 20260831125410 | 67 | 247 | 0.0 | 0.0 | 0.00 | 0.00 | 0.00 | 99 | 986.3 |
| 20260831124906 | 67 | 247 | 0.0 | 0.0 | 0.00 | 0.00 | 0.00 | 99 | 986.1 |
| 20260831124402 | 67 | 247 | 0.0 | 0.0 | 0.00 | 0.00 | 0.00 | 99 | 986.2 |
| 20260831123857 | 67 | 247 | 0.0 | 0.0 | 0.00 | 0.00 | 0.00 | 99 | 986.0 |
| 20260831123356 | 67 | 247 | 0.0 | 0.0 | 0.00 | 0.00 | 0.00 | 99 | 985.9 |
| 20260831122855 | 67 | 247 | 0.0 | 0.0 | 0.00 | 0.00 | 0.00 | 99 | 985.9 |
| 20260831122351 | 66 | 247 | 0.0 | 0.0 | 0.00 | 0.00 | 0.00 | 99 | 985.8 |
| 20260831121846 | 66 | 247 | 0.0 | 0.0 | 0.00 | 0.00 | 0.00 | 99 | 986.0 |
| 20260831121342 | 66 | 247 | 0.0 | 0.0 | 0.00 | 0.00 | 0.00 | 99 | 985.8 |
| 20260831120837 | 66 | 247 | 0.0 | 0.0 | 0.00 | 0.00 | 0.00 | 99 | 985.9 |
| 20260831120331 | 66 | 247 | 0.0 | 0.0 | 0.00 | 0.00 | 0.00 | 99 | 985.9 |
| 20260831115827 | 65 | 247 | 0.0 | 0.0 | 0.00 | 0.00 | 0.00 | 99 | 986.1 |
| 20260831115323 | 65 | 247 | 0.0 | 0.0 | 0.00 | 0.00 | 0.00 | 99 | 985.9 |
| 20260831114822 | 65 | 247 | 0.0 | 0.0 | 0.00 | 0.00 | 0.00 | 99 | 985.9 |
| 20260831114321 | 65 | 247 | 0.0 | 0.0 | 0.00 | 0.00 | 0.00 | 99 | 985.7 |
| 20260831113817 | 65 | 247 | 0.0 | 0.0 | 0.00 | 0.00 | 0.00 | 99 | 985.7 |
| 20260831113317 | 65 | 247 | 0.0 | 0.0 | 0.00 | 0.00 | 0.00 | 99 | 985.7 |
| 20260831112812 | 64 | 247 | 0.0 | 0.0 | 0.00 | 0.00 | 0.00 | 99 | 985.6 |
| 20260831112307 | 64 | 247 | 0.0 | 0.0 | 0.00 | 0.00 | 0.00 | 99 | 985.7 |
| 20260831111802 | 64 | 247 | 0.0 | 0.0 | 0.00 | 0.00 | 0.00 | 99 | 985.7 |
| 20260831111258 | 64 | 247 | 0.0 | 0.0 | 0.00 | 0.00 | 0.00 | 99 | 985.5 |
| 20260831110754 | 64 | 247 | 0.0 | 0.0 | 0.00 | 0.00 | 0.00 | 99 | 985.6 |
| 20260831110248 | 64 | 247 | 0.0 | 0.0 | 0.00 | 0.00 | 0.00 | 99 | 985.5 |
| 20260831105747 | 64 | 247 | 0.0 | 0.0 | 0.00 | 0.00 | 0.00 | 99 | 985.4 |
| 20260831105243 | 64 | 247 | 0.0 | 0.0 | 0.00 | 0.00 | 0.00 | 99 | 985.3 |
| 20260831104743 | 64 | 247 | 0.0 | 0.0 | 0.00 | 0.00 | 0.00 | 99 | 985.4 |
| 20260831104241 | 64 | 247 | 0.0 | 0.0 | 0.00 | 0.00 | 0.00 | 99 | 985.3 |
| 20260831103740 | 64 | 247 | 0.0 | 0.0 | 0.00 | 0.00 | 0.00 | 99 | 985.2 |
| 20260831103236 | 64 | 247 | 0.0 | 0.0 | 0.00 | 0.00 | 0.00 | 99 | 985.3 |
| 20260831102735 | 64 | 248 | 0.0 | 0.0 | 0.00 | 0.00 | 0.00 | 99 | 985.1 |
| 20260831102230 | 64 | 247 | 0.0 | 0.0 | 0.00 | 0.00 | 0.00 | 99 | 985.3 |
| 20260831101726 | 64 | 247 | 0.0 | 0.0 | 0.00 | 0.00 | 0.00 | 99 | 985.2 |
| 20260831101221 | 64 | 247 | 0.0 | 0.0 | 0.00 | 0.00 | 0.00 | 99 | 985.3 |
| 20260831100718 | 64 | 247 | 0.0 | 0.0 | 0.00 | 0.00 | 0.00 | 99 | 985.3 |
| 20260831100213 | 64 | 247 | 0.0 | 0.0 | 0.00 | 0.00 | 0.00 | 99 | 985.2 |
| 20260831095712 | 64 | 247 | 0.0 | 0.0 | 0.00 | 0.00 | 0.00 | 99 | 985.3 |
| 20260831095207 | 64 | 248 | 0.0 | 0.0 | 0.00 | 0.00 | 0.00 | 99 | 985.3 |
| 20260831094702 | 64 | 247 | 0.0 | 0.0 | 0.00 | 0.00 | 0.00 | 99 | 985.1 |
| 20260831094158 | 64 | 248 | 0.0 | 0.0 | 0.00 | 0.00 | 0.00 | 99 | 985.2 |
| 20260831093653 | 64 | 247 | 0.0 | 0.0 | 0.00 | 0.00 | 0.00 | 99 | 985.3 |
| 20260831093149 | 65 | 247 | 0.0 | 0.0 | 0.00 | 0.00 | 0.00 | 99 | 985.3 |
| 20260831092645 | 65 | 247 | 0.0 | 0.0 | 0.00 | 0.00 | 0.00 | 99 | 985.1 |
| 20260831092141 | 65 | 247 | 0.0 | 0.0 | 0.00 | 0.00 | 0.00 | 99 | 985.2 |
| 20260831091640 | 65 | 247 | 0.0 | 0.0 | 0.00 | 0.00 | 0.00 | 99 | 984.9 |
| 20260831091136 | 65 | 247 | 0.0 | 0.0 | 0.00 | 0.00 | 0.00 | 99 | 984.8 |
| 20260831090631 | 65 | 247 | 0.0 | 0.0 | 0.00 | 0.00 | 0.00 | 99 | 985.1 |
| 20260831090127 | 65 | 247 | 0.0 | 0.0 | 0.00 | 0.00 | 0.00 | 99 | 985.0 |
| 20260831085622 | 65 | 247 | 0.0 | 0.0 | 0.00 | 0.00 | 0.00 | 99 | 985.0 |
| 20260831085118 | 65 | 247 | 0.0 | 0.0 | 0.00 | 0.00 | 0.00 | 99 | 984.8 |
| 20260831084613 | 65 | 247 | 0.0 | 0.0 | 0.00 | 0.00 | 0.00 | 99 | 984.9 |
| 20260831084109 | 65 | 247 | 0.0 | 0.0 | 0.00 | 0.00 | 0.00 | 99 | 985.0 |
| 20260831083605 | 65 | 247 | 0.0 | 0.0 | 0.00 | 0.00 | 0.00 | 99 | 984.9 |
| 20260831083100 | 65 | 247 | 0.0 | 0.0 | 0.00 | 0.00 | 0.00 | 99 | 984.9 |
| 20260831082559 | 65 | 247 | 0.0 | 0.0 | 0.00 | 0.00 | 0.00 | 99 | 984.8 |
| 20260831082054 | 65 | 247 | 0.0 | 0.0 | 0.00 | 0.00 | 0.00 | 99 | 984.9 |
| 20260831081550 | 65 | 247 | 0.0 | 0.0 | 0.00 | 0.00 | 0.00 | 99 | 985.0 |
| 20260831081046 | 65 | 247 | 0.0 | 0.0 | 0.00 | 0.00 | 0.00 | 99 | 984.9 |
| 20260831080545 | 65 | 247 | 0.0 | 0.0 | 0.00 | 0.00 | 0.00 | 99 | 984.9 |
| 20260831080041 | 65 | 247 | 0.0 | 0.0 | 0.00 | 0.00 | 0.00 | 99 | 984.9 |
| 20260831075536 | 65 | 247 | 0.0 | 0.0 | 0.00 | 0.00 | 0.00 | 99 | 984.9 |
| 20260831075032 | 65 | 247 | 0.0 | 0.0 | 0.00 | 0.00 | 0.00 | 99 | 984.8 |
| 20260831074531 | 65 | 247 | 0.0 | 0.0 | 0.00 | 0.00 | 0.00 | 99 | 984.8 |
| 20260831074031 | 65 | 247 | 0.0 | 0.0 | 0.00 | 0.00 | 0.00 | 99 | 984.7 |
| 20260831073526 | 65 | 247 | 0.0 | 0.0 | 0.00 | 0.00 | 0.00 | 99 | 984.8 |
| 20260831073025 | 65 | 247 | 0.0 | 0.0 | 0.00 | 0.00 | 0.00 | 99 | 984.5 |
| 20260831072521 | 65 | 247 | 0.0 | 0.0 | 0.00 | 0.00 | 0.00 | 99 | 984.7 |
| 20260831072017 | 66 | 247 | 0.0 | 0.0 | 0.00 | 0.00 | 0.00 | 99 | 984.8 |
| 20260831071516 | 66 | 247 | 0.0 | 0.0 | 0.00 | 0.00 | 0.00 | 99 | 984.7 |
| 20260831071011 | 66 | 247 | 0.0 | 0.0 | 0.00 | 0.00 | 0.00 | 99 | 984.5 |
| 20260831070510 | 66 | 247 | 0.0 | 0.0 | 0.00 | 0.00 | 0.00 | 99 | 984.7 |
| 20260831070005 | 66 | 247 | 0.0 | 0.0 | 0.00 | 0.00 | 0.00 | 99 | 984.8 |
| 20260831065503 | 66 | 247 | 0.0 | 0.0 | 0.00 | 0.00 | 0.00 | 99 | 984.7 |
| 20260831064957 | 66 | 247 | 0.0 | 0.0 | 0.00 | 0.00 | 0.00 | 99 | 984.9 |
| 20260831064452 | 66 | 247 | 0.0 | 0.0 | 0.00 | 0.00 | 0.00 | 99 | 984.8 |
| 20260831063948 | 66 | 247 | 0.0 | 0.0 | 0.00 | 0.00 | 0.00 | 99 | 984.8 |
| 20260831063443 | 66 | 247 | 0.0 | 0.0 | 0.00 | 0.00 | 0.00 | 99 | 984.7 |
| 20260831062942 | 67 | 247 | 0.0 | 0.0 | 0.00 | 0.00 | 0.00 | 99 | 985.0 |
| 20260831062439 | 67 | 247 | 0.0 | 0.0 | 0.00 | 0.00 | 0.00 | 99 | 985.0 |
| 20260831061938 | 67 | 247 | 0.0 | 0.0 | 0.00 | 0.00 | 0.00 | 99 | 984.9 |
| 20260831061436 | 67 | 247 | 0.0 | 0.0 | 0.00 | 0.00 | 0.00 | 99 | 985.0 |
| 20260831060933 | 67 | 247 | 0.0 | 0.0 | 0.00 | 0.00 | 0.00 | 99 | 985.0 |
| 20260831060428 | 67 | 247 | 0.0 | 0.0 | 0.00 | 0.00 | 0.00 | 99 | 985.0 |
| 20260831055927 | 67 | 247 | 0.0 | 0.0 | 0.00 | 0.00 | 0.00 | 99 | 985.2 |
| 20260831055422 | 67 | 247 | 0.0 | 0.0 | 0.00 | 0.00 | 0.00 | 99 | 985.2 |
| 20260831054917 | 67 | 247 | 0.0 | 0.0 | 0.00 | 0.00 | 0.00 | 99 | 985.4 |
| 20260831054413 | 67 | 247 | 0.0 | 0.0 | 0.00 | 0.00 | 0.00 | 99 | 985.1 |
| 20260831053912 | 67 | 247 | 0.0 | 0.0 | 0.00 | 0.00 | 0.00 | 99 | 985.2 |
| 20260831053410 | 67 | 247 | 0.0 | 0.0 | 0.00 | 0.00 | 0.00 | 99 | 985.2 |
| 20260831052905 | 67 | 247 | 0.0 | 0.0 | 0.00 | 0.00 | 0.00 | 99 | 985.3 |
| 20260831052404 | 67 | 247 | 0.0 | 0.0 | 0.00 | 0.00 | 0.00 | 99 | 985.4 |
| 20260831051902 | 67 | 247 | 0.0 | 0.0 | 0.00 | 0.00 | 0.00 | 99 | 985.4 |
| 20260831051400 | 67 | 247 | 0.0 | 0.0 | 0.00 | 0.00 | 0.00 | 99 | 985.4 |
| 20260831050855 | 68 | 247 | 0.0 | 0.0 | 0.00 | 0.00 | 0.00 | 99 | 985.5 |
| 20260831050350 | 68 | 247 | 0.0 | 0.0 | 0.00 | 0.00 | 0.00 | 99 | 985.4 |
| 20260831045849 | 68 | 247 | 0.0 | 0.0 | 0.00 | 0.00 | 0.00 | 99 | 985.6 |
| 20260831045343 | 68 | 247 | 0.0 | 0.0 | 0.00 | 0.00 | 0.00 | 99 | 985.5 |
| 20260831044838 | 68 | 247 | 0.0 | 0.0 | 0.00 | 0.00 | 0.00 | 99 | 985.1 |
| 20260831044333 | 68 | 247 | 0.0 | 0.0 | 0.00 | 0.00 | 0.00 | 99 | 985.5 |
| 20260831043829 | 69 | 247 | 0.0 | 0.0 | 0.00 | 0.00 | 0.00 | 99 | 985.4 |
| 20260831043328 | 69 | 247 | 0.0 | 0.0 | 0.00 | 0.00 | 0.00 | 99 | 985.3 |
| 20260831042824 | 69 | 247 | 0.0 | 0.0 | 0.00 | 0.00 | 0.00 | 99 | 985.5 |
| 20260831042323 | 69 | 247 | 0.0 | 0.0 | 0.00 | 0.00 | 0.00 | 99 | 985.6 |
| 20260831041819 | 69 | 247 | 0.0 | 0.0 | 0.00 | 0.00 | 0.00 | 99 | 985.4 |
| 20260831041318 | 69 | 247 | 0.0 | 0.0 | 0.00 | 0.00 | 0.00 | 99 | 985.6 |
| 20260831040813 | 69 | 247 | 0.0 | 0.0 | 0.00 | 0.00 | 0.00 | 99 | 985.7 |
| 20260831040312 | 69 | 247 | 0.0 | 0.0 | 0.00 | 0.00 | 0.00 | 99 | 985.5 |
| 20260831035811 | 69 | 247 | 0.0 | 0.0 | 0.00 | 0.04 | 0.04 | 99 | 985.7 |
| 20260831035309 | 69 | 247 | 0.0 | 0.0 | 0.00 | 0.04 | 0.04 | 99 | 985.8 |
| 20260831034804 | 69 | 247 | 0.0 | 0.0 | 0.00 | 0.04 | 0.04 | 99 | 985.7 |
| 20260831034259 | 69 | 247 | 0.0 | 0.0 | 0.00 | 0.04 | 0.04 | 99 | 985.7 |
| 20260831033754 | 69 | 247 | 0.0 | 0.0 | 0.00 | 0.04 | 0.04 | 99 | 985.8 |
| 20260831033249 | 69 | 247 | 0.0 | 0.0 | 0.00 | 0.04 | 0.04 | 99 | 985.8 |
| 20260831032744 | 69 | 247 | 0.0 | 0.0 | 0.00 | 0.04 | 0.04 | 99 | 985.8 |
| 20260831032239 | 69 | 247 | 0.0 | 0.0 | 0.00 | 0.04 | 0.04 | 99 | 985.8 |
| 20260831031734 | 69 | 247 | 0.0 | 0.0 | 0.00 | 0.04 | 0.04 | 99 | 985.8 |
| 20260831031228 | 69 | 247 | 0.0 | 0.0 | 0.00 | 0.04 | 0.04 | 99 | 986.0 |
| 20260831030728 | 69 | 247 | 0.0 | 0.0 | 0.00 | 0.04 | 0.04 | 99 | 985.8 |
| 20260831030227 | 69 | 247 | 0.0 | 0.0 | 0.00 | 0.04 | 0.04 | 99 | 985.8 |
| 20260831025726 | 69 | 247 | 0.0 | 0.0 | 0.00 | 0.04 | 0.04 | 99 | 986.0 |
| 20260831025221 | 69 | 247 | 0.0 | 0.0 | 0.00 | 0.04 | 0.04 | 99 | 985.8 |
| 20260831024717 | 69 | 247 | 0.0 | 0.0 | 0.00 | 0.04 | 0.04 | 99 | 986.0 |
| 20260831024215 | 69 | 247 | 0.0 | 0.0 | 0.00 | 0.04 | 0.04 | 99 | 985.8 |
| 20260831023714 | 69 | 247 | 0.0 | 0.0 | 0.00 | 0.04 | 0.04 | 99 | 986.0 |
| 20260831023213 | 69 | 247 | 0.0 | 0.0 | 0.00 | 0.04 | 0.04 | 99 | 985.9 |
| 20260831022708 | 69 | 247 | 0.0 | 0.0 | 0.00 | 0.04 | 0.04 | 99 | 985.7 |
| 20260831022203 | 69 | 247 | 0.0 | 0.0 | 0.00 | 0.04 | 0.04 | 99 | 985.7 |
| 20260831021702 | 69 | 247 | 0.0 | 0.0 | 0.00 | 0.04 | 0.04 | 99 | 985.8 |
| 20260831021152 | 69 | 247 | 0.0 | 0.0 | 0.00 | 0.04 | 0.04 | 99 | 985.7 |
| 20260831020648 | 69 | 247 | 0.0 | 0.0 | 0.00 | 0.04 | 0.04 | 99 | 985.9 |
| 20260831020148 | 69 | 247 | 0.0 | 0.0 | 0.00 | 0.04 | 0.04 | 99 | 986.0 |
| 20260831015643 | 69 | 247 | 0.0 | 0.0 | 0.00 | 0.04 | 0.04 | 99 | 985.6 |
| 20260831015142 | 69 | 247 | 0.0 | 0.0 | 0.00 | 0.04 | 0.04 | 99 | 985.8 |
| 20260831014637 | 69 | 247 | 0.0 | 0.0 | 0.00 | 0.04 | 0.04 | 99 | 985.9 |
| 20260831014127 | 69 | 247 | 0.0 | 0.0 | 0.00 | 0.04 | 0.04 | 99 | 985.6 |
| 20260831013624 | 69 | 247 | 0.0 | 0.0 | 0.00 | 0.04 | 0.04 | 99 | 985.7 |
| 20260831013123 | 69 | 247 | 0.0 | 0.0 | 0.00 | 0.04 | 0.04 | 99 | 985.6 |
| 20260831012618 | 69 | 247 | 0.0 | 0.0 | 0.00 | 0.04 | 0.04 | 99 | 985.7 |
| 20260831012113 | 69 | 247 | 0.0 | 0.0 | 0.00 | 0.04 | 0.04 | 99 | 985.5 |
| 20260831011613 | 69 | 247 | 0.0 | 0.0 | 0.00 | 0.04 | 0.04 | 99 | 985.6 |
| 20260831011108 | 69 | 247 | 0.0 | 0.0 | 0.00 | 0.04 | 0.04 | 99 | 985.6 |
| 20260831010604 | 69 | 247 | 0.0 | 0.0 | 0.00 | 0.04 | 0.04 | 99 | 985.4 |
| 20260831010100 | 69 | 247 | 0.0 | 0.0 | 0.00 | 0.04 | 0.04 | 99 | 985.3 |
| 20260831005559 | 69 | 247 | 0.0 | 0.0 | 0.00 | 0.04 | 0.04 | 99 | 985.6 |
| 20260831005059 | 69 | 247 | 0.0 | 0.0 | 0.00 | 0.04 | 0.04 | 99 | 985.5 |
| 20260831004555 | 69 | 247 | 0.0 | 0.0 | 0.00 | 0.04 | 0.04 | 99 | 985.6 |
| 20260831004051 | 69 | 247 | 0.0 | 0.0 | 0.00 | 0.04 | 0.04 | 99 | 985.2 |
| 20260831003547 | 69 | 247 | 0.0 | 0.0 | 0.00 | 0.04 | 0.04 | 99 | 985.0 |
| 20260831003043 | 69 | 247 | 0.0 | 0.0 | 0.00 | 0.04 | 0.04 | 99 | 985.0 |
| 20260831002541 | 69 | 247 | 0.0 | 0.0 | 0.00 | 0.04 | 0.04 | 99 | 985.0 |
| 20260831002036 | 69 | 247 | 0.0 | 0.0 | 0.00 | 0.04 | 0.04 | 99 | 985.1 |
| 20260831001532 | 70 | 247 | 0.0 | 0.0 | 0.00 | 0.04 | 0.04 | 99 | 985.0 |
| 20260831001028 | 70 | 247 | 0.0 | 0.0 | 0.00 | 0.04 | 0.04 | 99 | 985.2 |
| 20260831000525 | 70 | 247 | 0.0 | 0.0 | 0.00 | 0.04 | 0.04 | 99 | 985.0 |
| 20260831000024 | 70 | 247 | 0.0 | 0.0 | 0.00 | 0.04 | 0.04 | 99 | 984.8 |
| 20260830235523 | 70 | 247 | 0.0 | 0.0 | 0.00 | 0.04 | 0.04 | 99 | 984.8 |
| 20260830235019 | 71 | 247 | 0.0 | 0.0 | 0.00 | 0.04 | 0.04 | 99 | 984.8 |
| 20260830234514 | 71 | 247 | 0.0 | 0.0 | 0.00 | 0.04 | 0.04 | 99 | 984.7 |
| 20260830234009 | 71 | 247 | 0.0 | 0.0 | 0.00 | 0.04 | 0.04 | 99 | 984.6 |
| 20260830233504 | 71 | 247 | 0.0 | 0.0 | 0.00 | 0.04 | 0.04 | 99 | 984.6 |